createdAt,value
2022-08-09T00:01:02.607Z,21.25
2022-08-09T00:06:16.817Z,21.19
2022-08-09T00:11:24.202Z,21.19
2022-08-09T00:16:03.172Z,21.12
2022-08-09T00:21:03.912Z,21.12
2022-08-09T00:26:05.045Z,21.12
2022-08-09T00:31:30.902Z,21.06
2022-08-09T00:36:10.682Z,21.06
2022-08-09T00:41:08.158Z,21.06
2022-08-09T00:46:10.023Z,21.06
2022-08-09T00:51:15.515Z,21.00
2022-08-09T00:56:11.446Z,20.94
2022-08-09T01:01:16.973Z,20.94
2022-08-09T01:06:17.650Z,20.94
2022-08-09T01:11:14.939Z,20.87
2022-08-09T01:16:23.846Z,20.87
2022-08-09T01:21:14.977Z,20.87
2022-08-09T01:26:20.198Z,20.87
2022-08-09T01:31:23.340Z,20.81
2022-08-09T01:36:24.410Z,20.81
2022-08-09T01:41:25.534Z,20.81
2022-08-09T01:46:26.707Z,20.81
2022-08-09T01:51:23.184Z,20.75
2022-08-09T01:56:28.084Z,20.75
2022-08-09T02:01:30.702Z,20.75
2022-08-09T02:06:28.124Z,20.75
2022-08-09T02:11:40.203Z,20.69
2022-08-09T02:16:32.079Z,20.69
2022-08-09T02:21:30.789Z,20.75
2022-08-09T02:26:34.258Z,20.75
2022-08-09T02:31:35.716Z,20.75
2022-08-09T02:36:35.679Z,20.75
2022-08-09T02:41:44.650Z,20.75
2022-08-09T02:46:45.358Z,20.69
2022-08-09T02:51:46.208Z,20.62
2022-08-09T02:56:48.809Z,20.56
2022-08-09T03:02:05.865Z,20.56
2022-08-09T03:06:48.750Z,20.44
2022-08-09T03:12:05.144Z,20.50
2022-08-09T03:16:49.646Z,20.44
2022-08-09T03:21:48.583Z,20.44
2022-08-09T03:26:47.075Z,20.44
2022-08-09T03:32:00.121Z,20.44
2022-08-09T03:36:48.013Z,20.37
2022-08-09T03:41:53.063Z,20.37
2022-08-09T03:46:48.892Z,20.44
2022-08-09T03:52:00.274Z,20.31
2022-08-09T03:56:53.019Z,20.31
2022-08-09T04:01:53.853Z,20.37
2022-08-09T04:06:59.428Z,20.31
2022-08-09T04:12:00.090Z,20.31
2022-08-09T04:16:57.348Z,20.31
2022-08-09T04:22:01.318Z,20.25
2022-08-09T04:26:57.335Z,20.25
2022-08-09T04:32:02.819Z,20.31
2022-08-09T04:37:03.464Z,20.25
2022-08-09T04:42:04.192Z,20.25
2022-08-09T04:47:04.471Z,20.19
2022-08-09T04:52:03.351Z,20.25
2022-08-09T04:57:09.356Z,20.19
2022-08-09T05:02:09.741Z,20.25
2022-08-09T05:07:05.555Z,20.31
2022-08-09T05:12:11.195Z,20.25
2022-08-09T05:17:15.174Z,20.25
2022-08-09T05:22:07.611Z,20.25
2022-08-09T05:27:08.247Z,20.25
2022-08-09T05:32:09.037Z,20.37
2022-08-09T05:37:14.666Z,20.37
2022-08-09T05:42:17.203Z,20.50
2022-08-09T05:47:15.928Z,20.56
2022-08-09T05:52:14.565Z,20.56
2022-08-09T05:57:20.186Z,20.56
2022-08-09T06:02:16.885Z,20.62
2022-08-09T06:07:22.130Z,20.69
2022-08-09T06:12:22.341Z,20.62
2022-08-09T06:17:18.129Z,20.75
2022-08-09T06:22:26.267Z,20.75
2022-08-09T06:27:24.559Z,20.75
2022-08-09T06:32:53.696Z,20.81
2022-08-09T06:37:21.075Z,20.87
2022-08-09T06:42:24.613Z,20.87
2022-08-09T06:47:39.691Z,20.94
2022-08-09T06:52:25.961Z,21.00
2022-08-09T06:57:42.631Z,21.06
2022-08-09T07:02:41.317Z,21.12
2022-08-09T07:07:59.379Z,21.19
2022-08-09T07:14:03.917Z,21.25
2022-08-09T07:18:52.837Z,21.37
2022-08-09T07:22:45.084Z,21.44
2022-08-09T07:27:53.053Z,21.50
2022-08-09T07:32:40.512Z,21.56
2022-08-09T07:37:43.068Z,21.62
2022-08-09T07:42:46.034Z,21.69
2022-08-09T07:52:59.711Z,21.75
2022-08-09T07:56:51.949Z,21.81
2022-08-09T08:01:41.186Z,21.94
2022-08-09T08:06:45.402Z,21.94
2022-08-09T08:12:11.812Z,22.00
2022-08-09T08:17:01.189Z,22.06
2022-08-09T08:21:50.891Z,22.12
2022-08-09T08:26:55.354Z,22.19
2022-08-09T08:32:02.836Z,22.25
2022-08-09T08:36:49.037Z,22.31
2022-08-09T08:47:00.205Z,22.44
2022-08-09T08:52:00.120Z,22.56
2022-08-09T08:56:37.808Z,22.62
2022-08-09T09:01:44.833Z,22.69
2022-08-09T09:06:34.463Z,22.75
2022-08-09T09:11:38.395Z,22.87
2022-08-09T09:16:31.332Z,22.87
2022-08-09T09:21:43.312Z,22.94
2022-08-09T09:26:32.060Z,23.00
2022-08-09T09:32:04.206Z,23.06
2022-08-09T09:36:40.112Z,23.12
2022-08-09T09:41:39.934Z,23.19
2022-08-09T09:46:43.719Z,23.19
2022-08-09T09:51:38.295Z,23.25
2022-08-09T09:56:53.530Z,23.31
2022-08-09T10:01:40.823Z,23.37
2022-08-09T10:06:46.926Z,23.44
2022-08-09T10:21:51.377Z,23.56
2022-08-09T10:26:49.417Z,23.62
2022-08-09T10:36:51.332Z,23.81
2022-08-09T10:46:55.874Z,23.87
2022-08-09T10:51:53.211Z,23.94
2022-08-09T10:56:56.042Z,24.00
2022-08-09T11:03:03.462Z,24.06
2022-08-09T11:06:49.990Z,24.19
2022-08-09T11:11:55.434Z,24.25
2022-08-09T11:16:59.518Z,24.31
2022-08-09T11:22:05.601Z,24.37
2022-08-09T11:27:03.574Z,24.37
2022-08-09T11:32:00.920Z,24.44
2022-08-09T11:37:01.549Z,24.50
2022-08-09T11:41:58.883Z,24.62
2022-08-09T11:46:58.156Z,24.69
2022-08-09T11:52:54.454Z,24.81
2022-08-09T11:57:04.833Z,24.87
2022-08-09T12:02:18.510Z,25.00
2022-08-09T12:07:03.620Z,25.06
2022-08-09T12:12:20.114Z,25.12
2022-08-09T12:17:05.445Z,25.25
2022-08-09T12:29:00.554Z,25.31
2022-08-09T12:31:59.477Z,25.37
2022-08-09T12:36:45.678Z,25.37
2022-08-09T12:41:46.468Z,25.50
2022-08-09T12:46:52.087Z,25.56
2022-08-09T12:51:53.002Z,25.62
2022-08-09T13:01:52.080Z,25.75
2022-08-09T13:06:55.018Z,25.81
2022-08-09T13:11:42.852Z,25.87
2022-08-09T13:22:34.449Z,26.00
2022-08-09T13:26:37.219Z,26.00
2022-08-09T13:32:14.606Z,26.06
2022-08-09T13:36:40.139Z,26.06
2022-08-09T13:46:45.031Z,26.19
2022-08-09T13:51:38.907Z,26.25
2022-08-09T13:56:39.684Z,26.25
2022-08-09T14:06:41.387Z,26.31
2022-08-09T14:11:41.216Z,26.31
2022-08-09T14:16:44.569Z,26.31
2022-08-09T14:21:45.250Z,26.37
2022-08-09T14:26:51.393Z,26.31
2022-08-09T14:31:50.430Z,26.31
2022-08-09T14:36:42.766Z,26.31
2022-08-09T14:41:42.595Z,26.31
2022-08-09T14:47:01.301Z,26.31
2022-08-09T14:51:46.537Z,26.31
2022-08-09T14:56:53.839Z,26.31
2022-08-09T15:01:48.181Z,26.31
2022-08-09T15:11:54.418Z,26.25
2022-08-09T15:16:45.257Z,26.25
2022-08-09T15:21:59.074Z,26.31
2022-08-09T15:26:45.226Z,26.31
2022-08-09T15:31:42.148Z,26.31
2022-08-09T15:36:49.003Z,26.31
2022-08-09T15:41:50.630Z,26.31
2022-08-09T15:46:56.125Z,26.37
2022-08-09T15:52:04.234Z,26.37
2022-08-09T15:56:52.552Z,26.37
2022-08-09T16:01:52.668Z,26.37
2022-08-09T16:06:44.469Z,26.37
2022-08-09T16:11:32.884Z,26.31
2022-08-09T16:16:50.568Z,26.31
2022-08-09T16:21:41.602Z,26.31
2022-08-09T16:26:36.501Z,26.31
2022-08-09T16:32:10.882Z,26.19
2022-08-09T16:36:33.160Z,26.19
2022-08-09T16:41:39.491Z,26.25
2022-08-09T16:46:31.398Z,26.19
2022-08-09T16:51:36.481Z,26.19
2022-08-09T16:56:37.362Z,26.19
2022-08-09T17:01:37.819Z,26.12
2022-08-09T17:07:03.923Z,26.12
2022-08-09T17:11:41.420Z,26.06
2022-08-09T17:16:39.862Z,26.00
2022-08-09T17:21:41.127Z,26.00
2022-08-09T17:26:38.958Z,26.00
2022-08-09T17:31:40.272Z,25.94
2022-08-09T17:41:45.576Z,25.87
2022-08-09T17:46:55.478Z,25.87
2022-08-09T17:56:40.802Z,25.81
2022-08-09T18:01:41.194Z,25.75
2022-08-09T18:06:33.024Z,25.69
2022-08-09T18:11:47.179Z,25.62
2022-08-09T18:16:30.328Z,25.56
2022-08-09T18:21:41.121Z,25.50
2022-08-09T18:31:51.801Z,25.44
2022-08-09T18:36:32.319Z,25.37
2022-08-09T18:46:45.436Z,25.31
2022-08-09T18:51:54.770Z,25.25
2022-08-09T18:56:41.494Z,25.19
2022-08-09T19:01:46.190Z,25.12
2022-08-09T19:11:38.564Z,25.00
2022-08-09T19:16:47.231Z,24.94
2022-08-09T19:21:47.974Z,24.87
2022-08-09T19:26:40.000Z,24.87
2022-08-09T19:31:46.348Z,24.75
2022-08-09T19:36:40.315Z,24.75
2022-08-09T19:41:35.295Z,24.75
2022-08-09T19:46:49.281Z,24.62
2022-08-09T19:51:33.063Z,24.56
2022-08-09T19:56:29.348Z,24.37
2022-08-09T20:01:47.570Z,24.31
2022-08-09T20:06:40.637Z,24.19
2022-08-09T20:16:49.783Z,24.00
2022-08-09T20:31:51.481Z,23.75
2022-08-09T20:36:39.294Z,23.69
2022-08-09T20:41:42.632Z,23.62
2022-08-09T20:46:44.354Z,23.50
2022-08-09T20:51:36.485Z,23.44
2022-08-09T20:56:43.891Z,23.37
2022-08-09T21:01:49.859Z,23.31
2022-08-09T21:06:44.242Z,23.25
2022-08-09T21:16:39.473Z,23.06
2022-08-09T21:21:52.881Z,23.06
2022-08-09T21:26:43.636Z,22.94
2022-08-09T21:36:37.915Z,22.81
2022-08-09T21:42:00.463Z,22.81
2022-08-09T21:46:58.243Z,22.69
2022-08-09T21:56:43.662Z,22.62
2022-08-09T22:06:36.062Z,22.56
2022-08-09T22:11:50.804Z,22.50
2022-08-09T22:16:44.417Z,22.50
2022-08-09T22:21:45.445Z,22.44
2022-08-09T22:26:47.775Z,22.31
2022-08-09T22:31:50.586Z,22.25
2022-08-09T22:36:37.271Z,22.25
2022-08-09T22:41:29.188Z,22.19
2022-08-09T22:51:43.407Z,22.00
2022-08-09T22:56:37.776Z,22.00
2022-08-09T23:01:43.315Z,21.94
2022-08-09T23:16:46.396Z,21.87
2022-08-09T23:21:50.382Z,21.75
2022-08-09T23:31:42.255Z,21.69
2022-08-09T23:36:41.499Z,21.62
2022-08-09T23:41:39.134Z,21.56
2022-08-09T23:46:37.866Z,21.50
2022-08-09T23:51:43.545Z,21.44
2022-08-09T23:56:53.872Z,21.44
